sensor_id;sensor_type;location;lat;lon;timestamp;pressure;altitude;pressure_sealevel;temperature;humidity
9059;BME280;4564;42.034;25.834;2022-12-18T00:01:40;100917.44;;;10.13;100.00
9059;BME280;4564;42.034;25.834;2022-12-18T00:04:07;100918.13;;;10.23;100.00
9059;BME280;4564;42.034;25.834;2022-12-18T00:06:34;100913.22;;;10.19;100.00
9059;BME280;4564;42.034;25.834;2022-12-18T00:09:01;100897.25;;;10.16;100.00
9059;BME280;4564;42.034;25.834;2022-12-18T00:11:28;100883.56;;;10.17;100.00
9059;BME280;4564;42.034;25.834;2022-12-18T00:13:56;100867.59;;;10.22;100.00
9059;BME280;4564;42.034;25.834;2022-12-18T00:16:25;100846.59;;;10.24;100.00
9059;BME280;4564;42.034;25.834;2022-12-18T00:18:54;100853.03;;;10.23;100.00
9059;BME280;4564;42.034;25.834;2022-12-18T00:21:21;100859.84;;;10.19;100.00
9059;BME280;4564;42.034;25.834;2022-12-18T00:23:49;100873.53;;;10.26;100.00
9059;BME280;4564;42.034;25.834;2022-12-18T00:26:16;100887.47;;;10.31;100.00
9059;BME280;4564;42.034;25.834;2022-12-18T00:28:44;100908.81;;;10.34;100.00
9059;BME280;4564;42.034;25.834;2022-12-18T00:31:12;100906.59;;;10.29;100.00
9059;BME280;4564;42.034;25.834;2022-12-18T00:33:40;100895.72;;;10.37;100.00
9059;BME280;4564;42.034;25.834;2022-12-18T00:36:09;100900.50;;;10.35;100.00
9059;BME280;4564;42.034;25.834;2022-12-18T00:38:36;100911.69;;;10.32;100.00
9059;BME280;4564;42.034;25.834;2022-12-18T00:41:03;100909.31;;;10.29;100.00
9059;BME280;4564;42.034;25.834;2022-12-18T00:43:30;100918.13;;;10.23;100.00
9059;BME280;4564;42.034;25.834;2022-12-18T00:45:55;100930.00;;;10.22;100.00
9059;BME280;4564;42.034;25.834;2022-12-18T00:48:22;100942.19;;;10.26;100.00
9059;BME280;4564;42.034;25.834;2022-12-18T00:50:49;100939.81;;;10.31;100.00
9059;BME280;4564;42.034;25.834;2022-12-18T00:53:17;100939.50;;;10.34;100.00
9059;BME280;4564;42.034;25.834;2022-12-18T00:55:44;100938.16;;;10.30;100.00
9059;BME280;4564;42.034;25.834;2022-12-18T00:58:12;100935.56;;;10.13;100.00
9059;BME280;4564;42.034;25.834;2022-12-18T01:00:39;100931.53;;;10.17;100.00
9059;BME280;4564;42.034;25.834;2022-12-18T01:03:06;100942.22;;;10.18;100.00
9059;BME280;4564;42.034;25.834;2022-12-18T01:05:32;100933.22;;;10.18;100.00
9059;BME280;4564;42.034;25.834;2022-12-18T01:07:59;100919.50;;;10.19;100.00
9059;BME280;4564;42.034;25.834;2022-12-18T01:10:27;100915.09;;;10.18;100.00
9059;BME280;4564;42.034;25.834;2022-12-18T01:12:53;100920.50;;;10.18;100.00
9059;BME280;4564;42.034;25.834;2022-12-18T01:15:20;100924.91;;;10.19;100.00
9059;BME280;4564;42.034;25.834;2022-12-18T01:17:47;100921.38;;;10.19;100.00
9059;BME280;4564;42.034;25.834;2022-12-18T01:20:13;100924.25;;;10.25;100.00
9059;BME280;4564;42.034;25.834;2022-12-18T01:22:40;100927.97;;;10.24;100.00
9059;BME280;4564;42.034;25.834;2022-12-18T01:25:07;100924.91;;;10.27;100.00
9059;BME280;4564;42.034;25.834;2022-12-18T01:27:35;100913.06;;;10.36;100.00
9059;BME280;4564;42.034;25.834;2022-12-18T01:30:02;100908.13;;;10.32;100.00
9059;BME280;4564;42.034;25.834;2022-12-18T01:32:29;100916.09;;;10.33;100.00
9059;BME280;4564;42.034;25.834;2022-12-18T01:34:55;100917.78;;;10.34;100.00
9059;BME280;4564;42.034;25.834;2022-12-18T01:37:22;100914.75;;;10.29;100.00
9059;BME280;4564;42.034;25.834;2022-12-18T01:39:49;100911.19;;;10.29;100.00
9059;BME280;4564;42.034;25.834;2022-12-18T01:42:17;100919.31;;;10.29;100.00
9059;BME280;4564;42.034;25.834;2022-12-18T01:47:32;100931.69;;;10.23;100.00
9059;BME280;4564;42.034;25.834;2022-12-18T01:50:00;100936.78;;;10.26;100.00
9059;BME280;4564;42.034;25.834;2022-12-18T01:52:28;100931.19;;;10.20;100.00
9059;BME280;4564;42.034;25.834;2022-12-18T01:54:56;100939.50;;;10.18;100.00
9059;BME280;4564;42.034;25.834;2022-12-18T01:57:23;100936.56;;;10.11;100.00
9059;BME280;4564;42.034;25.834;2022-12-18T01:59:50;100933.69;;;10.05;100.00
9059;BME280;4564;42.034;25.834;2022-12-18T02:02:18;100936.41;;;9.97;100.00
9059;BME280;4564;42.034;25.834;2022-12-18T02:04:46;100942.84;;;10.04;100.00
9059;BME280;4564;42.034;25.834;2022-12-18T02:07:16;100945.19;;;9.99;100.00
9059;BME280;4564;42.034;25.834;2022-12-18T02:09:44;100939.44;;;10.02;100.00
9059;BME280;4564;42.034;25.834;2022-12-18T02:12:13;100927.59;;;10.03;100.00
9059;BME280;4564;42.034;25.834;2022-12-18T02:14:44;100919.09;;;10.06;100.00
9059;BME280;4564;42.034;25.834;2022-12-18T02:17:13;100901.84;;;10.07;100.00
9059;BME280;4564;42.034;25.834;2022-12-18T02:19:47;100894.72;;;10.06;100.00
9059;BME280;4564;42.034;25.834;2022-12-18T02:22:20;100908.44;;;10.13;100.00
9059;BME280;4564;42.034;25.834;2022-12-18T02:24:53;100922.19;;;10.27;100.00
9059;BME280;4564;42.034;25.834;2022-12-18T02:27:25;100927.78;;;10.34;100.00
9059;BME280;4564;42.034;25.834;2022-12-18T02:29:52;100925.41;;;10.39;100.00
9059;BME280;4564;42.034;25.834;2022-12-18T02:32:21;100919.16;;;10.30;100.00
9059;BME280;4564;42.034;25.834;2022-12-18T02:34:49;100905.25;;;10.25;100.00
9059;BME280;4564;42.034;25.834;2022-12-18T02:37:17;100900.31;;;10.21;100.00
9059;BME280;4564;42.034;25.834;2022-12-18T02:39:46;100915.25;;;10.17;100.00
9059;BME280;4564;42.034;25.834;2022-12-18T02:42:14;100933.38;;;10.16;100.00
9059;BME280;4564;42.034;25.834;2022-12-18T02:44:46;100941.00;;;10.21;100.00
9059;BME280;4564;42.034;25.834;2022-12-18T02:47:13;100950.00;;;10.21;100.00
9059;BME280;4564;42.034;25.834;2022-12-18T02:49:43;100954.75;;;10.27;100.00
9059;BME280;4564;42.034;25.834;2022-12-18T02:52:12;100958.16;;;10.29;100.00
9059;BME280;4564;42.034;25.834;2022-12-18T02:54:47;100963.22;;;10.32;100.00
9059;BME280;4564;42.034;25.834;2022-12-18T02:57:18;100969.19;;;10.36;100.00
9059;BME280;4564;42.034;25.834;2022-12-18T02:59:49;100966.28;;;10.37;100.00
9059;BME280;4564;42.034;25.834;2022-12-18T03:02:22;100969.00;;;10.37;100.00
9059;BME280;4564;42.034;25.834;2022-12-18T03:04:49;100973.41;;;10.46;100.00
9059;BME280;4564;42.034;25.834;2022-12-18T03:07:20;100981.56;;;10.46;100.00
9059;BME280;4564;42.034;25.834;2022-12-18T03:09:48;100992.91;;;10.50;100.00
9059;BME280;4564;42.034;25.834;2022-12-18T03:12:17;100988.50;;;10.57;100.00
9059;BME280;4564;42.034;25.834;2022-12-18T03:14:54;100987.66;;;10.57;100.00
9059;BME280;4564;42.034;25.834;2022-12-18T03:17:22;100984.25;;;10.55;100.00
9059;BME280;4564;42.034;25.834;2022-12-18T03:19:51;100989.03;;;10.52;100.00
9059;BME280;4564;42.034;25.834;2022-12-18T03:22:18;100987.66;;;10.57;100.00
9059;BME280;4564;42.034;25.834;2022-12-18T03:24:46;100992.91;;;10.58;100.00
9059;BME280;4564;42.034;25.834;2022-12-18T03:27:15;100996.28;;;10.60;100.00
9059;BME280;4564;42.034;25.834;2022-12-18T03:29:43;101001.56;;;10.62;100.00
9059;BME280;4564;42.034;25.834;2022-12-18T03:32:14;101001.56;;;10.62;100.00
9059;BME280;4564;42.034;25.834;2022-12-18T03:34:42;101016.31;;;10.67;100.00
9059;BME280;4564;42.034;25.834;2022-12-18T03:37:10;101014.25;;;10.69;100.00
9059;BME280;4564;42.034;25.834;2022-12-18T03:39:38;101017.50;;;10.73;100.00
9059;BME280;4564;42.034;25.834;2022-12-18T03:42:06;101018.34;;;10.73;100.00
9059;BME280;4564;42.034;25.834;2022-12-18T03:44:35;101023.59;;;10.83;100.00
9059;BME280;4564;42.034;25.834;2022-12-18T03:47:07;101024.28;;;10.85;100.00
9059;BME280;4564;42.034;25.834;2022-12-18T03:49:36;101032.25;;;10.86;100.00
9059;BME280;4564;42.034;25.834;2022-12-18T03:52:06;101024.63;;;10.90;100.00
9059;BME280;4564;42.034;25.834;2022-12-18T03:54:35;101023.25;;;10.94;100.00
9059;BME280;4564;42.034;25.834;2022-12-18T03:57:03;101036.16;;;10.92;100.00
9059;BME280;4564;42.034;25.834;2022-12-18T03:59:31;101037.69;;;10.94;100.00
9059;BME280;4564;42.034;25.834;2022-12-18T04:01:59;101040.72;;;10.91;100.00
9059;BME280;4564;42.034;25.834;2022-12-18T04:04:27;101049.19;;;10.97;100.00
9059;BME280;4564;42.034;25.834;2022-12-18T04:06:57;101049.72;;;11.00;100.00
9059;BME280;4564;42.034;25.834;2022-12-18T04:09:24;101049.41;;;10.95;100.00
9059;BME280;4564;42.034;25.834;2022-12-18T04:11:51;101051.75;;;10.98;100.00
9059;BME280;4564;42.034;25.834;2022-12-18T04:14:18;101046.00;;;10.93;100.00
9059;BME280;4564;42.034;25.834;2022-12-18T04:16:44;101053.13;;;10.94;100.00
9059;BME280;4564;42.034;25.834;2022-12-18T04:19:11;101053.81;;;10.88;100.00
9059;BME280;4564;42.034;25.834;2022-12-18T04:21:37;101057.69;;;10.85;100.00
9059;BME280;4564;42.034;25.834;2022-12-18T04:24:05;101056.16;;;10.91;100.00
9059;BME280;4564;42.034;25.834;2022-12-18T04:26:32;101061.09;;;10.87;100.00
9059;BME280;4564;42.034;25.834;2022-12-18T04:28:59;101060.94;;;10.89;100.00
9059;BME280;4564;42.034;25.834;2022-12-18T04:31:25;101061.59;;;10.91;100.00
9059;BME280;4564;42.034;25.834;2022-12-18T04:33:52;101065.00;;;10.93;100.00
9059;BME280;4564;42.034;25.834;2022-12-18T04:36:19;101068.06;;;10.98;100.00
9059;BME280;4564;42.034;25.834;2022-12-18T04:38:45;101070.78;;;11.06;100.00
9059;BME280;4564;42.034;25.834;2022-12-18T04:41:13;101076.19;;;10.98;100.00
9059;BME280;4564;42.034;25.834;2022-12-18T04:43:40;101078.06;;;10.98;100.00
9059;BME280;4564;42.034;25.834;2022-12-18T04:46:07;101077.22;;;10.97;100.00
9059;BME280;4564;42.034;25.834;2022-12-18T04:48:34;101080.94;;;10.96;100.00
9059;BME280;4564;42.034;25.834;2022-12-18T04:51:01;101079.28;;;10.95;100.00
9059;BME280;4564;42.034;25.834;2022-12-18T04:53:27;101083.66;;;10.96;100.00
9059;BME280;4564;42.034;25.834;2022-12-18T04:56:01;101081.78;;;10.97;100.00
9059;BME280;4564;42.034;25.834;2022-12-18T04:58:30;101086.91;;;11.00;100.00
9059;BME280;4564;42.034;25.834;2022-12-18T05:00:56;101085.03;;;11.00;100.00
9059;BME280;4564;42.034;25.834;2022-12-18T05:03:23;101086.06;;;10.99;100.00
9059;BME280;4564;42.034;25.834;2022-12-18T05:05:50;101087.41;;;11.03;100.00
9059;BME280;4564;42.034;25.834;2022-12-18T05:08:16;101096.25;;;11.05;100.00
9059;BME280;4564;42.034;25.834;2022-12-18T05:10:43;101097.59;;;11.09;100.00
9059;BME280;4564;42.034;25.834;2022-12-18T05:13:10;101099.28;;;11.10;100.00
9059;BME280;4564;42.034;25.834;2022-12-18T05:15:38;101099.94;;;11.12;100.00
9059;BME280;4564;42.034;25.834;2022-12-18T05:18:04;101103.19;;;11.16;100.00
9059;BME280;4564;42.034;25.834;2022-12-18T05:20:31;101108.25;;;11.19;100.00
9059;BME280;4564;42.034;25.834;2022-12-18T05:22:57;101111.19;;;11.17;100.00
9059;BME280;4564;42.034;25.834;2022-12-18T05:25:24;101126.44;;;11.18;100.00
9059;BME280;4564;42.034;25.834;2022-12-18T05:27:51;101122.88;;;11.18;100.00
9059;BME280;4564;42.034;25.834;2022-12-18T05:30:17;101119.66;;;11.22;100.00
9059;BME280;4564;42.034;25.834;2022-12-18T05:32:45;101126.97;;;11.22;100.00
9059;BME280;4564;42.034;25.834;2022-12-18T05:35:12;101131.88;;;11.18;100.00
9059;BME280;4564;42.034;25.834;2022-12-18T05:37:38;101133.06;;;11.16;100.00
9059;BME280;4564;42.034;25.834;2022-12-18T05:40:05;101138.66;;;11.14;100.00
9059;BME280;4564;42.034;25.834;2022-12-18T05:42:32;101149.22;;;11.17;100.00
9059;BME280;4564;42.034;25.834;2022-12-18T05:44:59;101150.88;;;11.18;100.00
9059;BME280;4564;42.034;25.834;2022-12-18T05:47:26;101153.94;;;11.15;100.00
9059;BME280;4564;42.034;25.834;2022-12-18T05:49:54;101158.00;;;11.19;100.00
9059;BME280;4564;42.034;25.834;2022-12-18T05:52:21;101165.50;;;11.17;100.00
9059;BME280;4564;42.034;25.834;2022-12-18T05:54:47;101170.09;;;11.17;100.00
9059;BME280;4564;42.034;25.834;2022-12-18T05:57:14;101165.50;;;11.17;100.00
9059;BME280;4564;42.034;25.834;2022-12-18T05:59:40;101167.72;;;11.22;100.00
9059;BME280;4564;42.034;25.834;2022-12-18T06:02:07;101172.63;;;11.26;100.00
9059;BME280;4564;42.034;25.834;2022-12-18T06:04:33;101177.22;;;11.26;100.00
9059;BME280;4564;42.034;25.834;2022-12-18T06:07:01;101174.13;;;11.29;100.00
9059;BME280;4564;42.034;25.834;2022-12-18T06:09:28;101185.53;;;11.32;100.00
9059;BME280;4564;42.034;25.834;2022-12-18T06:11:55;101190.78;;;11.42;100.00
9059;BME280;4564;42.034;25.834;2022-12-18T06:14:22;101197.56;;;11.46;100.00
9059;BME280;4564;42.034;25.834;2022-12-18T06:16:50;101201.00;;;11.48;100.00
9059;BME280;4564;42.034;25.834;2022-12-18T06:19:16;101207.97;;;11.43;100.00
9059;BME280;4564;42.034;25.834;2022-12-18T06:21:43;101209.31;;;11.39;100.00
9059;BME280;4564;42.034;25.834;2022-12-18T06:24:11;101221.53;;;11.34;100.00
9059;BME280;4564;42.034;25.834;2022-12-18T06:26:38;101227.81;;;11.35;100.00
9059;BME280;4564;42.034;25.834;2022-12-18T06:29:05;101230.38;;;11.36;100.00
9059;BME280;4564;42.034;25.834;2022-12-18T06:31:31;101235.81;;;11.36;100.00
9059;BME280;4564;42.034;25.834;2022-12-18T06:33:58;101242.59;;;11.41;100.00
9059;BME280;4564;42.034;25.834;2022-12-18T06:36:24;101240.22;;;11.46;100.00
9059;BME280;4564;42.034;25.834;2022-12-18T06:38:51;101247.69;;;11.35;100.00
9059;BME280;4564;42.034;25.834;2022-12-18T06:41:19;101255.84;;;11.35;100.00
9059;BME280;4564;42.034;25.834;2022-12-18T06:43:46;101263.34;;;11.33;100.00
9059;BME280;4564;42.034;25.834;2022-12-18T06:46:13;101262.63;;;11.40;100.00
9059;BME280;4564;42.034;25.834;2022-12-18T06:48:40;101268.41;;;11.45;100.00
9059;BME280;4564;42.034;25.834;2022-12-18T06:51:06;101277.94;;;11.49;100.00
9059;BME280;4564;42.034;25.834;2022-12-18T06:53:33;101278.25;;;11.46;100.00
9059;BME280;4564;42.034;25.834;2022-12-18T06:56:00;101289.69;;;11.49;100.00
9059;BME280;4564;42.034;25.834;2022-12-18T06:58:28;101280.31;;;11.52;100.00
9059;BME280;4564;42.034;25.834;2022-12-18T07:00:59;101290.00;;;11.62;100.00
9059;BME280;4564;42.034;25.834;2022-12-18T07:03:25;101289.50;;;11.59;100.00
9059;BME280;4564;42.034;25.834;2022-12-18T07:05:52;101299.38;;;11.60;100.00
9059;BME280;4564;42.034;25.834;2022-12-18T07:08:18;101307.84;;;11.57;100.00
9059;BME280;4564;42.034;25.834;2022-12-18T07:10:45;101301.75;;;11.55;100.00
9059;BME280;4564;42.034;25.834;2022-12-18T07:13:14;101304.63;;;11.53;100.00
9059;BME280;4564;42.034;25.834;2022-12-18T07:15:42;101309.91;;;11.55;100.00
9059;BME280;4564;42.034;25.834;2022-12-18T07:18:08;101306.97;;;11.56;100.00
9059;BME280;4564;42.034;25.834;2022-12-18T07:20:35;101314.47;;;11.54;100.00
9059;BME280;4564;42.034;25.834;2022-12-18T07:23:02;101320.41;;;11.58;100.00
9059;BME280;4564;42.034;25.834;2022-12-18T07:25:28;101324.84;;;11.59;100.00
9059;BME280;4564;42.034;25.834;2022-12-18T07:27:55;101325.19;;;11.64;100.00
9059;BME280;4564;42.034;25.834;2022-12-18T07:30:21;101329.59;;;11.65;100.00
9059;BME280;4564;42.034;25.834;2022-12-18T07:32:49;101335.38;;;11.62;100.00
9059;BME280;4564;42.034;25.834;2022-12-18T07:35:16;101344.91;;;11.66;100.00
9059;BME280;4564;42.034;25.834;2022-12-18T07:37:42;101345.22;;;11.63;100.00
9059;BME280;4564;42.034;25.834;2022-12-18T07:40:09;101353.56;;;11.69;100.00
9059;BME280;4564;42.034;25.834;2022-12-18T07:42:36;101351.34;;;11.65;100.00
9059;BME280;4564;42.034;25.834;2022-12-18T07:45:03;101358.00;;;11.70;100.00
9059;BME280;4564;42.034;25.834;2022-12-18T07:47:30;101358.16;;;11.69;100.00
9059;BME280;4564;42.034;25.834;2022-12-18T07:49:59;101365.47;;;11.68;100.00
9059;BME280;4564;42.034;25.834;2022-12-18T07:52:26;101368.34;;;11.67;100.00
9059;BME280;4564;42.034;25.834;2022-12-18T07:54:52;101367.16;;;11.69;100.00
9059;BME280;4564;42.034;25.834;2022-12-18T07:57:19;101371.41;;;11.72;100.00
9059;BME280;4564;42.034;25.834;2022-12-18T07:59:46;101378.94;;;11.78;100.00
9059;BME280;4564;42.034;25.834;2022-12-18T08:02:12;101373.69;;;11.76;100.00
9059;BME280;4564;42.034;25.834;2022-12-18T08:04:39;101392.72;;;11.76;100.00
9059;BME280;4564;42.034;25.834;2022-12-18T08:07:07;101389.13;;;11.76;100.00
9059;BME280;4564;42.034;25.834;2022-12-18T08:09:34;101391.66;;;11.77;100.00
9059;BME280;4564;42.034;25.834;2022-12-18T08:12:01;101391.50;;;11.79;100.00
9059;BME280;4564;42.034;25.834;2022-12-18T08:14:27;101400.88;;;11.76;100.00
9059;BME280;4564;42.034;25.834;2022-12-18T08:16:54;101409.69;;;11.78;100.00
9059;BME280;4564;42.034;25.834;2022-12-18T08:19:20;101407.50;;;11.82;100.00
9059;BME280;4564;42.034;25.834;2022-12-18T08:21:47;101412.75;;;11.84;100.00
9059;BME280;4564;42.034;25.834;2022-12-18T08:24:15;101415.31;;;11.85;100.00
9059;BME280;4564;42.034;25.834;2022-12-18T08:26:42;101411.22;;;11.89;100.00
9059;BME280;4564;42.034;25.834;2022-12-18T08:29:11;101419.75;;;11.94;100.00
9059;BME280;4564;42.034;25.834;2022-12-18T08:31:38;101421.28;;;11.97;100.00
9059;BME280;4564;42.034;25.834;2022-12-18T08:34:05;101428.09;;;11.93;100.00
9059;BME280;4564;42.034;25.834;2022-12-18T08:36:31;101431.66;;;12.01;100.00
9059;BME280;4564;42.034;25.834;2022-12-18T08:38:58;101432.69;;;12.08;100.00
9059;BME280;4564;42.034;25.834;2022-12-18T08:41:26;101432.50;;;12.10;100.00
9059;BME280;4564;42.034;25.834;2022-12-18T08:43:53;101426.88;;;11.95;100.00
9059;BME280;4564;42.034;25.834;2022-12-18T08:46:37;101431.47;;;11.95;100.00
9059;BME280;4564;42.034;25.834;2022-12-18T08:49:04;101429.97;;;11.92;100.00
9059;BME280;4564;42.034;25.834;2022-12-18T08:51:32;101429.97;;;11.92;100.00
9059;BME280;4564;42.034;25.834;2022-12-18T08:53:59;101429.06;;;11.84;100.00
9059;BME280;4564;42.034;25.834;2022-12-18T08:56:27;101428.38;;;11.73;100.00
9059;BME280;4564;42.034;25.834;2022-12-18T08:58:55;101427.56;;;11.89;100.00
9059;BME280;4564;42.034;25.834;2022-12-18T09:01:22;101436.22;;;11.85;99.97
9059;BME280;4564;42.034;25.834;2022-12-18T09:03:48;101434.31;;;11.77;100.00
9059;BME280;4564;42.034;25.834;2022-12-18T09:06:15;101443.09;;;11.55;100.00
9059;BME280;4564;42.034;25.834;2022-12-18T09:08:42;101444.97;;;11.54;100.00
9059;BME280;4564;42.034;25.834;2022-12-18T09:11:11;101447.59;;;11.30;100.00
9059;BME280;4564;42.034;25.834;2022-12-18T09:13:40;101440.97;;;11.32;100.00
9059;BME280;4564;42.034;25.834;2022-12-18T09:16:07;101444.88;;;11.30;100.00
9059;BME280;4564;42.034;25.834;2022-12-18T09:18:33;101445.00;;;11.20;100.00
9059;BME280;4564;42.034;25.834;2022-12-18T09:21:06;101436.84;;;11.20;100.00
9059;BME280;4564;42.034;25.834;2022-12-18T09:23:33;101444.34;;;11.26;100.00
9059;BME280;4564;42.034;25.834;2022-12-18T09:26:00;101434.78;;;11.14;100.00
9059;BME280;4564;42.034;25.834;2022-12-18T09:28:26;101424.25;;;11.11;100.00
9059;BME280;4564;42.034;25.834;2022-12-18T09:30:54;101417.09;;;11.10;100.00
9059;BME280;4564;42.034;25.834;2022-12-18T09:33:21;101421.13;;;10.98;100.00
9059;BME280;4564;42.034;25.834;2022-12-18T09:35:48;101411.59;;;10.94;100.00
9059;BME280;4564;42.034;25.834;2022-12-18T09:38:15;101408.34;;;10.90;100.00
9059;BME280;4564;42.034;25.834;2022-12-18T09:40:42;101408.25;;;11.00;100.00
9059;BME280;4564;42.034;25.834;2022-12-18T09:43:12;101412.31;;;11.04;100.00
9059;BME280;4564;42.034;25.834;2022-12-18T09:45:41;101409.97;;;11.09;100.00
9059;BME280;4564;42.034;25.834;2022-12-18T09:50:41;101418.19;;;11.25;100.00
9059;BME280;4564;42.034;25.834;2022-12-18T09:53:09;101412.75;;;11.25;100.00
9059;BME280;4564;42.034;25.834;2022-12-18T09:55:39;101417.69;;;11.22;100.00
9059;BME280;4564;42.034;25.834;2022-12-18T09:58:11;101415.44;;;11.17;100.00
9059;BME280;4564;42.034;25.834;2022-12-18T10:00:42;101423.41;;;11.19;100.00
9059;BME280;4564;42.034;25.834;2022-12-18T10:03:09;101422.63;;;11.34;100.00
9059;BME280;4564;42.034;25.834;2022-12-18T10:05:37;101408.69;;;11.29;100.00
9059;BME280;4564;42.034;25.834;2022-12-18T10:08:08;101416.53;;;11.32;100.00
9059;BME280;4564;42.034;25.834;2022-12-18T10:10:40;101425.69;;;11.40;100.00
9059;BME280;4564;42.034;25.834;2022-12-18T10:13:12;101432.00;;;11.40;100.00
9059;BME280;4564;42.034;25.834;2022-12-18T10:15:45;101424.53;;;11.42;100.00
9059;BME280;4564;42.034;25.834;2022-12-18T10:18:19;101414.50;;;11.43;100.00
9059;BME280;4564;42.034;25.834;2022-12-18T10:20:48;101425.03;;;11.38;100.00
9059;BME280;4564;42.034;25.834;2022-12-18T10:23:17;101432.84;;;11.41;100.00
9059;BME280;4564;42.034;25.834;2022-12-18T10:25:50;101425.03;;;11.46;100.00
9059;BME280;4564;42.034;25.834;2022-12-18T10:28:18;101422.31;;;11.46;100.00
9059;BME280;4564;42.034;25.834;2022-12-18T10:30:46;101418.25;;;11.42;100.00
9059;BME280;4564;42.034;25.834;2022-12-18T10:33:13;101420.81;;;11.43;100.00
9059;BME280;4564;42.034;25.834;2022-12-18T10:35:41;101416.72;;;11.47;100.00
9059;BME280;4564;42.034;25.834;2022-12-18T10:38:21;101421.66;;;11.44;100.00
9059;BME280;4564;42.034;25.834;2022-12-18T10:40:49;101418.91;;;11.35;100.00
9059;BME280;4564;42.034;25.834;2022-12-18T10:43:19;101415.63;;;11.24;100.00
9059;BME280;4564;42.034;25.834;2022-12-18T10:45:57;101419.41;;;11.31;100.00
9059;BME280;4564;42.034;25.834;2022-12-18T10:48:24;101426.69;;;11.30;100.00
9059;BME280;4564;42.034;25.834;2022-12-18T10:50:51;101421.06;;;11.24;100.00
9059;BME280;4564;42.034;25.834;2022-12-18T10:53:19;101430.41;;;11.29;100.00
9059;BME280;4564;42.034;25.834;2022-12-18T10:55:47;101430.56;;;11.20;100.00
9059;BME280;4564;42.034;25.834;2022-12-18T10:58:20;101431.38;;;11.12;100.00
9059;BME280;4564;42.034;25.834;2022-12-18T11:01:01;101431.22;;;11.14;100.00
9059;BME280;4564;42.034;25.834;2022-12-18T11:03:29;101429.31;;;11.06;100.00
9059;BME280;4564;42.034;25.834;2022-12-18T11:06:04;101429.97;;;11.00;100.00
9059;BME280;4564;42.034;25.834;2022-12-18T11:08:31;101446.19;;;10.84;100.00
9059;BME280;4564;42.034;25.834;2022-12-18T11:10:59;101444.47;;;10.83;100.00
9059;BME280;4564;42.034;25.834;2022-12-18T11:13:26;101443.72;;;10.73;100.00
9059;BME280;4564;42.034;25.834;2022-12-18T11:15:54;101442.38;;;10.77;100.00
9059;BME280;4564;42.034;25.834;2022-12-18T11:18:22;101450.75;;;10.83;100.00
9059;BME280;4564;42.034;25.834;2022-12-18T11:20:51;101447.44;;;10.98;100.00
9059;BME280;4564;42.034;25.834;2022-12-18T11:23:19;101448.44;;;10.97;100.00
9059;BME280;4564;42.034;25.834;2022-12-18T11:25:50;101454.56;;;10.99;100.00
9059;BME280;4564;42.034;25.834;2022-12-18T11:28:27;101447.06;;;10.92;100.00
9059;BME280;4564;42.034;25.834;2022-12-18T11:31:08;101449.56;;;10.86;100.00
9059;BME280;4564;42.034;25.834;2022-12-18T11:33:36;101453.34;;;10.93;100.00
9059;BME280;4564;42.034;25.834;2022-12-18T11:36:04;101452.13;;;10.87;100.00
9059;BME280;4564;42.034;25.834;2022-12-18T11:38:34;101468.31;;;10.97;100.00
9059;BME280;4564;42.034;25.834;2022-12-18T11:41:03;101459.28;;;10.88;100.00
9059;BME280;4564;42.034;25.834;2022-12-18T11:43:33;101458.94;;;10.91;100.00
9059;BME280;4564;42.034;25.834;2022-12-18T11:46:02;101467.25;;;10.90;100.00
9059;BME280;4564;42.034;25.834;2022-12-18T11:48:32;101465.22;;;10.92;100.00
9059;BME280;4564;42.034;25.834;2022-12-18T11:51:01;101462.78;;;10.81;100.00
9059;BME280;4564;42.034;25.834;2022-12-18T11:53:29;101462.03;;;10.71;100.00
9059;BME280;4564;42.034;25.834;2022-12-18T11:56:01;101465.75;;;10.70;100.00
9059;BME280;4564;42.034;25.834;2022-12-18T11:58:34;101467.59;;;10.69;100.00
9059;BME280;4564;42.034;25.834;2022-12-18T12:01:12;101458.56;;;10.61;100.00
9059;BME280;4564;42.034;25.834;2022-12-18T12:03:46;101472.16;;;10.61;100.00
9059;BME280;4564;42.034;25.834;2022-12-18T12:06:16;101463.47;;;10.57;100.00
9059;BME280;4564;42.034;25.834;2022-12-18T12:08:51;101459.06;;;10.56;100.00
9059;BME280;4564;42.034;25.834;2022-12-18T12:11:22;101466.88;;;10.59;100.00
9059;BME280;4564;42.034;25.834;2022-12-18T12:14:00;101466.38;;;10.64;100.00
9059;BME280;4564;42.034;25.834;2022-12-18T12:16:29;101474.16;;;10.59;100.00
9059;BME280;4564;42.034;25.834;2022-12-18T12:19:03;101472.84;;;10.63;100.00
9059;BME280;4564;42.034;25.834;2022-12-18T12:21:34;101481.00;;;10.63;100.00
9059;BME280;4564;42.034;25.834;2022-12-18T12:24:03;101479.69;;;10.49;100.00
9059;BME280;4564;42.034;25.834;2022-12-18T12:26:35;101479.53;;;10.50;100.00
9059;BME280;4564;42.034;25.834;2022-12-18T12:29:09;101480.69;;;10.48;100.00
9059;BME280;4564;42.034;25.834;2022-12-18T12:31:47;101485.66;;;10.52;100.00
9059;BME280;4564;42.034;25.834;2022-12-18T12:34:18;101483.41;;;10.48;100.00
9059;BME280;4564;42.034;25.834;2022-12-18T12:36:50;101502.25;;;10.49;100.00
9059;BME280;4564;42.034;25.834;2022-12-18T12:39:20;101498.81;;;10.47;100.00
9059;BME280;4564;42.034;25.834;2022-12-18T12:41:48;101498.81;;;10.47;100.00
9059;BME280;4564;42.034;25.834;2022-12-18T12:44:35;101514.28;;;10.47;100.00
9059;BME280;4564;42.034;25.834;2022-12-18T12:47:08;101510.88;;;10.45;100.00
9059;BME280;4564;42.034;25.834;2022-12-18T12:49:37;101512.19;;;10.41;100.00
9059;BME280;4564;42.034;25.834;2022-12-18T12:52:05;101516.63;;;10.24;100.00
9059;BME280;4564;42.034;25.834;2022-12-18T12:54:34;101525.63;;;10.15;100.00
9059;BME280;4564;42.034;25.834;2022-12-18T12:57:02;101532.50;;;10.19;100.00
9059;BME280;4564;42.034;25.834;2022-12-18T12:59:34;101537.50;;;10.14;100.00
9059;BME280;4564;42.034;25.834;2022-12-18T13:02:09;101534.56;;;10.07;100.00